sensor_id;sensor_type;location;lat;lon;timestamp;P1;durP1;ratioP1;P2;durP2;ratioP2
53389;SDS011;39288;42.970;1.524;2023-07-31T00:00:39;12.20;;;4.27;;
53389;SDS011;39288;42.970;1.524;2023-07-31T00:01:40;5.63;;;3.37;;
53389;SDS011;39288;42.970;1.524;2023-07-31T00:02:41;11.53;;;3.40;;
53389;SDS011;39288;42.970;1.524;2023-07-31T00:03:41;16.20;;;4.60;;
53389;SDS011;39288;42.970;1.524;2023-07-31T00:04:42;9.93;;;4.43;;
53389;SDS011;39288;42.970;1.524;2023-07-31T00:05:42;8.90;;;3.83;;
53389;SDS011;39288;42.970;1.524;2023-07-31T00:06:43;9.00;;;3.43;;
53389;SDS011;39288;42.970;1.524;2023-07-31T00:07:43;6.47;;;3.17;;
53389;SDS011;39288;42.970;1.524;2023-07-31T00:08:44;5.90;;;3.33;;
53389;SDS011;39288;42.970;1.524;2023-07-31T00:09:44;5.73;;;3.10;;
53389;SDS011;39288;42.970;1.524;2023-07-31T00:10:50;5.83;;;3.10;;
53389;SDS011;39288;42.970;1.524;2023-07-31T00:11:51;6.82;;;3.10;;
53389;SDS011;39288;42.970;1.524;2023-07-31T00:12:52;7.13;;;3.07;;
53389;SDS011;39288;42.970;1.524;2023-07-31T00:13:53;6.73;;;3.33;;
53389;SDS011;39288;42.970;1.524;2023-07-31T00:14:53;7.13;;;2.97;;
53389;SDS011;39288;42.970;1.524;2023-07-31T00:15:54;8.27;;;3.03;;
53389;SDS011;39288;42.970;1.524;2023-07-31T00:16:54;8.97;;;3.87;;
53389;SDS011;39288;42.970;1.524;2023-07-31T00:17:55;5.17;;;2.90;;
53389;SDS011;39288;42.970;1.524;2023-07-31T00:18:56;7.43;;;3.30;;
53389;SDS011;39288;42.970;1.524;2023-07-31T00:19:56;7.07;;;2.73;;
53389;SDS011;39288;42.970;1.524;2023-07-31T00:20:57;6.67;;;2.67;;
53389;SDS011;39288;42.970;1.524;2023-07-31T00:21:57;4.83;;;2.80;;
53389;SDS011;39288;42.970;1.524;2023-07-31T00:22:58;6.83;;;3.27;;
53389;SDS011;39288;42.970;1.524;2023-07-31T00:23:58;4.13;;;2.67;;
53389;SDS011;39288;42.970;1.524;2023-07-31T00:24:59;6.27;;;2.90;;
53389;SDS011;39288;42.970;1.524;2023-07-31T00:26:00;5.60;;;2.80;;
53389;SDS011;39288;42.970;1.524;2023-07-31T00:27:00;6.45;;;2.85;;
53389;SDS011;39288;42.970;1.524;2023-07-31T00:28:06;6.70;;;2.53;;
53389;SDS011;39288;42.970;1.524;2023-07-31T00:29:06;7.47;;;3.03;;
53389;SDS011;39288;42.970;1.524;2023-07-31T00:30:10;5.57;;;3.20;;
53389;SDS011;39288;42.970;1.524;2023-07-31T00:31:13;8.25;;;2.97;;
53389;SDS011;39288;42.970;1.524;2023-07-31T00:32:13;7.18;;;3.20;;
53389;SDS011;39288;42.970;1.524;2023-07-31T00:33:16;8.55;;;3.10;;
53389;SDS011;39288;42.970;1.524;2023-07-31T00:34:16;5.27;;;2.97;;
53389;SDS011;39288;42.970;1.524;2023-07-31T00:35:17;3.87;;;2.83;;
53389;SDS011;39288;42.970;1.524;2023-07-31T00:36:17;6.60;;;3.27;;
53389;SDS011;39288;42.970;1.524;2023-07-31T00:37:18;7.40;;;3.00;;
53389;SDS011;39288;42.970;1.524;2023-07-31T00:38:18;5.93;;;2.83;;
53389;SDS011;39288;42.970;1.524;2023-07-31T00:39:19;5.10;;;3.10;;
53389;SDS011;39288;42.970;1.524;2023-07-31T00:40:19;5.40;;;2.73;;
53389;SDS011;39288;42.970;1.524;2023-07-31T00:41:20;4.50;;;2.57;;
53389;SDS011;39288;42.970;1.524;2023-07-31T00:42:20;4.87;;;2.70;;
53389;SDS011;39288;42.970;1.524;2023-07-31T00:43:24;5.15;;;2.88;;
53389;SDS011;39288;42.970;1.524;2023-07-31T00:44:27;7.25;;;2.95;;
53389;SDS011;39288;42.970;1.524;2023-07-31T00:45:27;6.45;;;3.70;;
53389;SDS011;39288;42.970;1.524;2023-07-31T00:46:30;6.15;;;3.13;;
53389;SDS011;39288;42.970;1.524;2023-07-31T00:47:31;7.53;;;2.80;;
53389;SDS011;39288;42.970;1.524;2023-07-31T00:48:31;10.93;;;3.20;;
53389;SDS011;39288;42.970;1.524;2023-07-31T00:49:33;5.78;;;2.97;;
53389;SDS011;39288;42.970;1.524;2023-07-31T00:50:33;9.63;;;2.80;;
53389;SDS011;39288;42.970;1.524;2023-07-31T00:51:35;8.18;;;2.70;;
53389;SDS011;39288;42.970;1.524;2023-07-31T00:52:35;8.87;;;2.63;;
53389;SDS011;39288;42.970;1.524;2023-07-31T00:53:37;5.55;;;2.67;;
53389;SDS011;39288;42.970;1.524;2023-07-31T00:54:38;8.63;;;2.95;;
53389;SDS011;39288;42.970;1.524;2023-07-31T00:55:38;6.43;;;2.83;;
53389;SDS011;39288;42.970;1.524;2023-07-31T00:56:39;8.60;;;3.22;;
53389;SDS011;39288;42.970;1.524;2023-07-31T00:57:41;7.18;;;3.30;;
53389;SDS011;39288;42.970;1.524;2023-07-31T00:58:42;12.35;;;3.58;;
53389;SDS011;39288;42.970;1.524;2023-07-31T00:59:43;5.07;;;2.60;;
53389;SDS011;39288;42.970;1.524;2023-07-31T01:00:43;8.50;;;3.50;;
53389;SDS011;39288;42.970;1.524;2023-07-31T01:01:44;7.57;;;2.60;;
53389;SDS011;39288;42.970;1.524;2023-07-31T01:02:45;6.60;;;2.97;;
53389;SDS011;39288;42.970;1.524;2023-07-31T01:03:46;5.73;;;3.00;;
53389;SDS011;39288;42.970;1.524;2023-07-31T01:04:46;5.87;;;3.37;;
53389;SDS011;39288;42.970;1.524;2023-07-31T01:05:59;5.28;;;3.00;;
53389;SDS011;39288;42.970;1.524;2023-07-31T01:08:44;6.82;;;2.90;;
53389;SDS011;39288;42.970;1.524;2023-07-31T01:12:33;6.72;;;3.45;;
53389;SDS011;39288;42.970;1.524;2023-07-31T01:13:37;11.35;;;3.15;;
53389;SDS011;39288;42.970;1.524;2023-07-31T01:14:38;6.37;;;3.00;;
53389;SDS011;39288;42.970;1.524;2023-07-31T01:15:38;12.97;;;3.50;;
53389;SDS011;39288;42.970;1.524;2023-07-31T01:16:39;8.03;;;2.77;;
53389;SDS011;39288;42.970;1.524;2023-07-31T01:17:42;7.03;;;3.00;;
53389;SDS011;39288;42.970;1.524;2023-07-31T01:18:43;6.70;;;3.20;;
53389;SDS011;39288;42.970;1.524;2023-07-31T01:19:43;9.23;;;3.27;;
53389;SDS011;39288;42.970;1.524;2023-07-31T01:20:47;11.18;;;3.90;;
53389;SDS011;39288;42.970;1.524;2023-07-31T01:23:51;6.13;;;3.30;;
53389;SDS011;39288;42.970;1.524;2023-07-31T01:27:10;4.47;;;3.13;;
53389;SDS011;39288;42.970;1.524;2023-07-31T01:28:19;10.57;;;3.70;;
53389;SDS011;39288;42.970;1.524;2023-07-31T01:29:23;10.48;;;3.20;;
53389;SDS011;39288;42.970;1.524;2023-07-31T01:30:32;6.95;;;3.30;;
53389;SDS011;39288;42.970;1.524;2023-07-31T01:31:37;7.47;;;3.05;;
53389;SDS011;39288;42.970;1.524;2023-07-31T01:32:39;5.30;;;2.83;;
53389;SDS011;39288;42.970;1.524;2023-07-31T01:33:41;8.60;;;3.45;;
53389;SDS011;39288;42.970;1.524;2023-07-31T01:34:41;7.00;;;4.00;;
53389;SDS011;39288;42.970;1.524;2023-07-31T01:35:43;7.50;;;3.30;;
53389;SDS011;39288;42.970;1.524;2023-07-31T01:36:44;6.18;;;3.40;;
53389;SDS011;39288;42.970;1.524;2023-07-31T01:37:45;8.43;;;3.37;;
53389;SDS011;39288;42.970;1.524;2023-07-31T01:38:46;9.60;;;3.07;;
53389;SDS011;39288;42.970;1.524;2023-07-31T01:39:46;6.60;;;3.00;;
53389;SDS011;39288;42.970;1.524;2023-07-31T01:40:48;5.30;;;2.87;;
53389;SDS011;39288;42.970;1.524;2023-07-31T01:41:51;6.07;;;3.22;;
53389;SDS011;39288;42.970;1.524;2023-07-31T01:42:51;8.70;;;3.33;;
53389;SDS011;39288;42.970;1.524;2023-07-31T01:43:52;9.67;;;3.10;;
53389;SDS011;39288;42.970;1.524;2023-07-31T01:44:52;7.60;;;3.17;;
53389;SDS011;39288;42.970;1.524;2023-07-31T01:45:53;7.00;;;3.47;;
53389;SDS011;39288;42.970;1.524;2023-07-31T01:46:56;9.70;;;3.65;;
53389;SDS011;39288;42.970;1.524;2023-07-31T01:47:59;11.73;;;3.88;;
53389;SDS011;39288;42.970;1.524;2023-07-31T01:48:59;8.67;;;3.30;;
53389;SDS011;39288;42.970;1.524;2023-07-31T01:50:00;9.33;;;3.27;;
53389;SDS011;39288;42.970;1.524;2023-07-31T01:51:00;7.33;;;2.97;;
53389;SDS011;39288;42.970;1.524;2023-07-31T01:52:02;7.70;;;3.22;;
53389;SDS011;39288;42.970;1.524;2023-07-31T01:53:02;6.70;;;3.23;;
53389;SDS011;39288;42.970;1.524;2023-07-31T01:54:05;6.60;;;2.63;;
53389;SDS011;39288;42.970;1.524;2023-07-31T01:55:06;5.83;;;3.23;;
53389;SDS011;39288;42.970;1.524;2023-07-31T01:56:06;7.10;;;2.97;;
53389;SDS011;39288;42.970;1.524;2023-07-31T01:57:09;11.98;;;3.63;;
53389;SDS011;39288;42.970;1.524;2023-07-31T01:58:10;5.63;;;2.70;;
53389;SDS011;39288;42.970;1.524;2023-07-31T01:59:10;8.47;;;3.07;;
53389;SDS011;39288;42.970;1.524;2023-07-31T02:00:11;7.60;;;3.00;;
53389;SDS011;39288;42.970;1.524;2023-07-31T02:01:11;5.80;;;3.13;;
53389;SDS011;39288;42.970;1.524;2023-07-31T02:02:12;6.57;;;3.10;;
53389;SDS011;39288;42.970;1.524;2023-07-31T02:03:15;9.82;;;3.10;;
53389;SDS011;39288;42.970;1.524;2023-07-31T02:04:18;6.80;;;3.63;;
53389;SDS011;39288;42.970;1.524;2023-07-31T02:05:19;7.80;;;2.87;;
53389;SDS011;39288;42.970;1.524;2023-07-31T02:06:19;8.33;;;3.57;;
53389;SDS011;39288;42.970;1.524;2023-07-31T02:07:20;7.77;;;3.10;;
53389;SDS011;39288;42.970;1.524;2023-07-31T02:08:20;8.40;;;2.87;;
53389;SDS011;39288;42.970;1.524;2023-07-31T02:09:21;11.87;;;3.10;;
53389;SDS011;39288;42.970;1.524;2023-07-31T02:10:23;5.65;;;3.10;;
53389;SDS011;39288;42.970;1.524;2023-07-31T02:11:24;6.20;;;3.13;;
53389;SDS011;39288;42.970;1.524;2023-07-31T02:12:25;10.03;;;3.53;;
53389;SDS011;39288;42.970;1.524;2023-07-31T02:13:25;20.23;;;3.20;;
53389;SDS011;39288;42.970;1.524;2023-07-31T02:14:26;8.00;;;3.33;;
53389;SDS011;39288;42.970;1.524;2023-07-31T02:15:26;9.87;;;3.50;;
53389;SDS011;39288;42.970;1.524;2023-07-31T02:16:26;10.30;;;3.30;;
53389;SDS011;39288;42.970;1.524;2023-07-31T02:17:27;9.03;;;3.23;;
53389;SDS011;39288;42.970;1.524;2023-07-31T02:18:28;5.93;;;3.17;;
53389;SDS011;39288;42.970;1.524;2023-07-31T02:19:29;10.30;;;3.33;;
53389;SDS011;39288;42.970;1.524;2023-07-31T02:20:29;5.77;;;3.70;;
53389;SDS011;39288;42.970;1.524;2023-07-31T02:21:30;9.00;;;3.77;;
53389;SDS011;39288;42.970;1.524;2023-07-31T02:22:30;6.07;;;3.43;;
53389;SDS011;39288;42.970;1.524;2023-07-31T02:23:31;9.17;;;3.40;;
53389;SDS011;39288;42.970;1.524;2023-07-31T02:24:34;10.32;;;3.22;;
53389;SDS011;39288;42.970;1.524;2023-07-31T02:25:34;16.37;;;3.70;;
53389;SDS011;39288;42.970;1.524;2023-07-31T02:26:35;9.93;;;3.57;;
53389;SDS011;39288;42.970;1.524;2023-07-31T02:27:35;5.93;;;3.40;;
53389;SDS011;39288;42.970;1.524;2023-07-31T02:28:36;11.60;;;3.40;;
53389;SDS011;39288;42.970;1.524;2023-07-31T02:29:37;5.97;;;3.63;;
53389;SDS011;39288;42.970;1.524;2023-07-31T02:30:38;6.17;;;3.60;;
53389;SDS011;39288;42.970;1.524;2023-07-31T02:31:38;6.00;;;3.57;;
53389;SDS011;39288;42.970;1.524;2023-07-31T02:32:39;8.27;;;3.60;;
53389;SDS011;39288;42.970;1.524;2023-07-31T02:33:39;6.67;;;3.37;;
53389;SDS011;39288;42.970;1.524;2023-07-31T02:34:40;9.50;;;3.13;;
53389;SDS011;39288;42.970;1.524;2023-07-31T02:35:40;7.17;;;3.40;;
53389;SDS011;39288;42.970;1.524;2023-07-31T02:36:41;7.20;;;2.90;;
53389;SDS011;39288;42.970;1.524;2023-07-31T02:37:42;5.67;;;3.23;;
53389;SDS011;39288;42.970;1.524;2023-07-31T02:38:42;7.32;;;3.22;;
53389;SDS011;39288;42.970;1.524;2023-07-31T02:39:43;5.53;;;3.30;;
53389;SDS011;39288;42.970;1.524;2023-07-31T02:40:43;7.77;;;3.47;;
53389;SDS011;39288;42.970;1.524;2023-07-31T02:41:44;6.57;;;3.30;;
53389;SDS011;39288;42.970;1.524;2023-07-31T02:42:45;7.20;;;3.37;;
53389;SDS011;39288;42.970;1.524;2023-07-31T02:43:45;4.37;;;2.97;;
53389;SDS011;39288;42.970;1.524;2023-07-31T02:44:46;6.70;;;3.50;;
53389;SDS011;39288;42.970;1.524;2023-07-31T02:45:50;7.80;;;2.93;;
53389;SDS011;39288;42.970;1.524;2023-07-31T02:46:51;9.70;;;3.95;;
53389;SDS011;39288;42.970;1.524;2023-07-31T02:47:52;11.77;;;3.30;;
53389;SDS011;39288;42.970;1.524;2023-07-31T02:48:52;6.70;;;3.40;;
53389;SDS011;39288;42.970;1.524;2023-07-31T02:49:53;7.60;;;3.83;;
53389;SDS011;39288;42.970;1.524;2023-07-31T02:50:53;6.73;;;2.93;;
53389;SDS011;39288;42.970;1.524;2023-07-31T02:51:54;6.80;;;3.40;;
53389;SDS011;39288;42.970;1.524;2023-07-31T02:52:54;10.73;;;3.70;;
53389;SDS011;39288;42.970;1.524;2023-07-31T02:53:55;5.57;;;2.87;;
53389;SDS011;39288;42.970;1.524;2023-07-31T02:54:58;7.60;;;3.80;;
53389;SDS011;39288;42.970;1.524;2023-07-31T02:55:58;12.53;;;3.73;;
53389;SDS011;39288;42.970;1.524;2023-07-31T02:56:59;6.60;;;3.90;;
53389;SDS011;39288;42.970;1.524;2023-07-31T02:58:04;11.32;;;3.90;;
53389;SDS011;39288;42.970;1.524;2023-07-31T02:59:05;8.43;;;4.80;;
53389;SDS011;39288;42.970;1.524;2023-07-31T03:00:05;11.60;;;3.80;;
53389;SDS011;39288;42.970;1.524;2023-07-31T03:01:06;10.85;;;4.07;;
53389;SDS011;39288;42.970;1.524;2023-07-31T03:02:07;9.37;;;3.50;;
53389;SDS011;39288;42.970;1.524;2023-07-31T03:03:07;8.13;;;3.33;;
53389;SDS011;39288;42.970;1.524;2023-07-31T03:04:08;5.63;;;3.23;;
53389;SDS011;39288;42.970;1.524;2023-07-31T03:05:08;7.33;;;3.80;;
53389;SDS011;39288;42.970;1.524;2023-07-31T03:06:09;6.43;;;3.57;;
53389;SDS011;39288;42.970;1.524;2023-07-31T03:07:10;6.73;;;3.53;;
53389;SDS011;39288;42.970;1.524;2023-07-31T03:08:10;15.27;;;4.60;;
53389;SDS011;39288;42.970;1.524;2023-07-31T03:09:11;8.37;;;3.80;;
53389;SDS011;39288;42.970;1.524;2023-07-31T03:10:11;6.37;;;3.80;;
53389;SDS011;39288;42.970;1.524;2023-07-31T03:11:12;5.53;;;3.40;;
53389;SDS011;39288;42.970;1.524;2023-07-31T03:12:12;9.47;;;3.40;;
53389;SDS011;39288;42.970;1.524;2023-07-31T03:13:13;7.67;;;3.10;;
53389;SDS011;39288;42.970;1.524;2023-07-31T03:14:13;8.47;;;3.43;;
53389;SDS011;39288;42.970;1.524;2023-07-31T03:15:14;9.30;;;3.30;;
53389;SDS011;39288;42.970;1.524;2023-07-31T03:16:14;10.10;;;3.90;;
53389;SDS011;39288;42.970;1.524;2023-07-31T03:17:15;5.77;;;3.43;;
53389;SDS011;39288;42.970;1.524;2023-07-31T03:18:16;15.27;;;3.83;;
53389;SDS011;39288;42.970;1.524;2023-07-31T03:19:16;6.17;;;3.10;;
53389;SDS011;39288;42.970;1.524;2023-07-31T03:20:16;6.43;;;3.27;;
53389;SDS011;39288;42.970;1.524;2023-07-31T03:21:17;6.80;;;3.47;;
53389;SDS011;39288;42.970;1.524;2023-07-31T03:22:17;6.73;;;3.10;;
53389;SDS011;39288;42.970;1.524;2023-07-31T03:23:18;6.77;;;3.20;;
53389;SDS011;39288;42.970;1.524;2023-07-31T03:24:18;7.43;;;3.10;;
53389;SDS011;39288;42.970;1.524;2023-07-31T03:25:19;18.00;;;3.60;;
53389;SDS011;39288;42.970;1.524;2023-07-31T03:26:19;7.63;;;3.20;;
53389;SDS011;39288;42.970;1.524;2023-07-31T03:27:20;10.03;;;3.40;;
53389;SDS011;39288;42.970;1.524;2023-07-31T03:28:20;6.77;;;3.87;;
53389;SDS011;39288;42.970;1.524;2023-07-31T03:29:21;6.23;;;3.07;;
53389;SDS011;39288;42.970;1.524;2023-07-31T03:30:22;7.80;;;3.57;;
53389;SDS011;39288;42.970;1.524;2023-07-31T03:31:22;6.63;;;3.03;;
53389;SDS011;39288;42.970;1.524;2023-07-31T03:32:23;10.63;;;3.70;;
53389;SDS011;39288;42.970;1.524;2023-07-31T03:33:23;4.27;;;2.83;;
53389;SDS011;39288;42.970;1.524;2023-07-31T03:34:24;6.70;;;3.57;;
53389;SDS011;39288;42.970;1.524;2023-07-31T03:35:24;11.47;;;4.33;;
53389;SDS011;39288;42.970;1.524;2023-07-31T03:36:25;4.03;;;3.00;;
53389;SDS011;39288;42.970;1.524;2023-07-31T03:37:25;6.63;;;3.00;;
53389;SDS011;39288;42.970;1.524;2023-07-31T03:38:26;11.80;;;3.97;;
53389;SDS011;39288;42.970;1.524;2023-07-31T03:39:27;16.20;;;3.50;;
53389;SDS011;39288;42.970;1.524;2023-07-31T03:40:27;6.00;;;3.17;;
53389;SDS011;39288;42.970;1.524;2023-07-31T03:41:28;8.43;;;3.57;;
53389;SDS011;39288;42.970;1.524;2023-07-31T03:42:28;10.70;;;3.87;;
53389;SDS011;39288;42.970;1.524;2023-07-31T03:43:29;9.50;;;3.33;;
53389;SDS011;39288;42.970;1.524;2023-07-31T03:44:29;10.60;;;3.77;;
53389;SDS011;39288;42.970;1.524;2023-07-31T03:45:30;10.00;;;3.77;;
53389;SDS011;39288;42.970;1.524;2023-07-31T03:46:30;10.67;;;3.97;;
53389;SDS011;39288;42.970;1.524;2023-07-31T03:47:31;9.20;;;3.67;;
53389;SDS011;39288;42.970;1.524;2023-07-31T03:48:31;14.10;;;3.60;;
53389;SDS011;39288;42.970;1.524;2023-07-31T03:49:32;14.23;;;3.93;;
53389;SDS011;39288;42.970;1.524;2023-07-31T03:50:32;9.90;;;4.13;;
53389;SDS011;39288;42.970;1.524;2023-07-31T03:51:33;11.80;;;4.17;;
53389;SDS011;39288;42.970;1.524;2023-07-31T03:52:33;7.57;;;3.73;;
53389;SDS011;39288;42.970;1.524;2023-07-31T03:53:34;9.60;;;3.63;;
53389;SDS011;39288;42.970;1.524;2023-07-31T03:54:37;10.85;;;3.88;;
53389;SDS011;39288;42.970;1.524;2023-07-31T03:55:37;7.90;;;3.93;;
53389;SDS011;39288;42.970;1.524;2023-07-31T03:56:38;8.43;;;3.10;;
53389;SDS011;39288;42.970;1.524;2023-07-31T03:57:38;5.90;;;3.40;;
53389;SDS011;39288;42.970;1.524;2023-07-31T03:58:39;7.30;;;3.27;;
53389;SDS011;39288;42.970;1.524;2023-07-31T03:59:39;5.27;;;3.07;;
53389;SDS011;39288;42.970;1.524;2023-07-31T04:00:40;10.53;;;3.70;;
53389;SDS011;39288;42.970;1.524;2023-07-31T04:01:41;11.23;;;3.30;;
53389;SDS011;39288;42.970;1.524;2023-07-31T04:02:41;7.03;;;4.07;;
53389;SDS011;39288;42.970;1.524;2023-07-31T04:03:42;8.73;;;2.97;;
53389;SDS011;39288;42.970;1.524;2023-07-31T04:04:42;11.00;;;3.60;;
53389;SDS011;39288;42.970;1.524;2023-07-31T04:05:43;5.53;;;3.57;;
53389;SDS011;39288;42.970;1.524;2023-07-31T04:06:43;7.17;;;3.47;;
53389;SDS011;39288;42.970;1.524;2023-07-31T04:07:44;6.67;;;3.43;;
53389;SDS011;39288;42.970;1.524;2023-07-31T04:08:44;9.07;;;4.07;;
53389;SDS011;39288;42.970;1.524;2023-07-31T04:09:47;8.50;;;3.67;;
53389;SDS011;39288;42.970;1.524;2023-07-31T04:10:48;11.73;;;3.50;;
53389;SDS011;39288;42.970;1.524;2023-07-31T04:11:49;6.83;;;3.77;;
53389;SDS011;39288;42.970;1.524;2023-07-31T04:12:49;11.23;;;3.53;;
53389;SDS011;39288;42.970;1.524;2023-07-31T04:13:50;9.77;;;3.57;;
53389;SDS011;39288;42.970;1.524;2023-07-31T04:14:50;7.03;;;3.90;;
53389;SDS011;39288;42.970;1.524;2023-07-31T04:15:51;10.80;;;3.17;;
53389;SDS011;39288;42.970;1.524;2023-07-31T04:16:51;11.80;;;3.90;;
53389;SDS011;39288;42.970;1.524;2023-07-31T04:17:52;5.50;;;3.00;;
53389;SDS011;39288;42.970;1.524;2023-07-31T04:18:53;8.17;;;3.80;;
53389;SDS011;39288;42.970;1.524;2023-07-31T04:19:53;9.77;;;3.40;;
53389;SDS011;39288;42.970;1.524;2023-07-31T04:20:54;5.43;;;2.60;;
53389;SDS011;39288;42.970;1.524;2023-07-31T04:21:54;7.70;;;3.20;;
53389;SDS011;39288;42.970;1.524;2023-07-31T04:22:55;5.93;;;3.40;;
53389;SDS011;39288;42.970;1.524;2023-07-31T04:23:55;6.73;;;3.00;;
53389;SDS011;39288;42.970;1.524;2023-07-31T04:24:56;6.27;;;2.67;;
53389;SDS011;39288;42.970;1.524;2023-07-31T04:25:56;6.23;;;2.63;;
53389;SDS011;39288;42.970;1.524;2023-07-31T04:26:57;4.70;;;2.80;;
53389;SDS011;39288;42.970;1.524;2023-07-31T04:27:57;3.93;;;2.50;;
53389;SDS011;39288;42.970;1.524;2023-07-31T04:28:58;7.03;;;2.73;;
53389;SDS011;39288;42.970;1.524;2023-07-31T04:29:58;6.47;;;3.20;;
53389;SDS011;39288;42.970;1.524;2023-07-31T04:30:59;8.77;;;2.57;;
53389;SDS011;39288;42.970;1.524;2023-07-31T04:31:59;5.63;;;2.70;;
53389;SDS011;39288;42.970;1.524;2023-07-31T04:33:00;5.07;;;3.33;;
53389;SDS011;39288;42.970;1.524;2023-07-31T04:34:00;7.40;;;2.40;;
53389;SDS011;39288;42.970;1.524;2023-07-31T04:35:01;5.53;;;2.80;;
53389;SDS011;39288;42.970;1.524;2023-07-31T04:36:02;5.40;;;2.85;;
53389;SDS011;39288;42.970;1.524;2023-07-31T04:37:03;8.43;;;2.97;;
53389;SDS011;39288;42.970;1.524;2023-07-31T04:38:03;4.67;;;2.60;;
53389;SDS011;39288;42.970;1.524;2023-07-31T04:39:04;11.87;;;3.03;;
53389;SDS011;39288;42.970;1.524;2023-07-31T04:40:05;7.13;;;2.67;;
53389;SDS011;39288;42.970;1.524;2023-07-31T04:41:06;7.85;;;2.53;;
53389;SDS011;39288;42.970;1.524;2023-07-31T04:42:06;2.70;;;1.97;;
53389;SDS011;39288;42.970;1.524;2023-07-31T04:43:07;3.43;;;2.30;;
53389;SDS011;39288;42.970;1.524;2023-07-31T04:44:07;3.47;;;2.40;;
53389;SDS011;39288;42.970;1.524;2023-07-31T04:45:08;5.43;;;2.70;;
53389;SDS011;39288;42.970;1.524;2023-07-31T04:46:09;9.52;;;2.35;;
53389;SDS011;39288;42.970;1.524;2023-07-31T04:47:09;4.60;;;2.40;;
53389;SDS011;39288;42.970;1.524;2023-07-31T04:48:10;5.47;;;2.50;;
53389;SDS011;39288;42.970;1.524;2023-07-31T04:49:11;10.17;;;2.87;;
53389;SDS011;39288;42.970;1.524;2023-07-31T04:50:11;6.60;;;2.80;;
53389;SDS011;39288;42.970;1.524;2023-07-31T04:51:12;5.87;;;1.87;;
53389;SDS011;39288;42.970;1.524;2023-07-31T04:52:12;4.33;;;1.70;;
53389;SDS011;39288;42.970;1.524;2023-07-31T04:53:13;3.37;;;2.00;;
53389;SDS011;39288;42.970;1.524;2023-07-31T04:54:13;2.67;;;1.50;;
53389;SDS011;39288;42.970;1.524;2023-07-31T04:55:15;2.78;;;1.58;;
53389;SDS011;39288;42.970;1.524;2023-07-31T04:56:15;5.07;;;2.03;;
53389;SDS011;39288;42.970;1.524;2023-07-31T04:57:16;5.57;;;2.22;;
53389;SDS011;39288;42.970;1.524;2023-07-31T04:58:16;6.70;;;1.70;;
53389;SDS011;39288;42.970;1.524;2023-07-31T04:59:17;6.03;;;1.63;;
53389;SDS011;39288;42.970;1.524;2023-07-31T05:00:18;3.57;;;1.80;;
53389;SDS011;39288;42.970;1.524;2023-07-31T05:01:18;4.10;;;1.70;;
53389;SDS011;39288;42.970;1.524;2023-07-31T05:02:19;3.60;;;1.23;;
53389;SDS011;39288;42.970;1.524;2023-07-31T05:03:19;5.43;;;1.80;;
53389;SDS011;39288;42.970;1.524;2023-07-31T05:04:20;4.17;;;2.07;;
53389;SDS011;39288;42.970;1.524;2023-07-31T05:05:20;7.20;;;1.90;;
53389;SDS011;39288;42.970;1.524;2023-07-31T05:06:21;5.70;;;1.90;;
53389;SDS011;39288;42.970;1.524;2023-07-31T05:07:22;4.57;;;1.70;;
53389;SDS011;39288;42.970;1.524;2023-07-31T05:08:22;4.67;;;1.87;;
53389;SDS011;39288;42.970;1.524;2023-07-31T05:09:23;3.73;;;1.90;;
53389;SDS011;39288;42.970;1.524;2023-07-31T05:10:24;3.97;;;1.57;;
53389;SDS011;39288;42.970;1.524;2023-07-31T05:11:24;2.55;;;1.75;;
53389;SDS011;39288;42.970;1.524;2023-07-31T05:12:25;3.43;;;1.87;;
53389;SDS011;39288;42.970;1.524;2023-07-31T05:13:26;6.10;;;1.90;;
53389;SDS011;39288;42.970;1.524;2023-07-31T05:14:26;7.13;;;2.47;;
53389;SDS011;39288;42.970;1.524;2023-07-31T05:15:27;4.20;;;2.03;;
53389;SDS011;39288;42.970;1.524;2023-07-31T05:16:28;5.30;;;2.37;;
53389;SDS011;39288;42.970;1.524;2023-07-31T05:17:28;4.70;;;2.00;;
53389;SDS011;39288;42.970;1.524;2023-07-31T05:18:29;4.47;;;2.40;;
53389;SDS011;39288;42.970;1.524;2023-07-31T05:19:30;5.07;;;2.20;;
53389;SDS011;39288;42.970;1.524;2023-07-31T05:20:30;6.30;;;1.87;;
53389;SDS011;39288;42.970;1.524;2023-07-31T05:21:31;3.93;;;2.10;;
53389;SDS011;39288;42.970;1.524;2023-07-31T05:22:31;3.27;;;2.00;;
53389;SDS011;39288;42.970;1.524;2023-07-31T05:23:32;5.27;;;2.10;;
53389;SDS011;39288;42.970;1.524;2023-07-31T05:24:33;6.07;;;2.58;;
53389;SDS011;39288;42.970;1.524;2023-07-31T05:25:33;4.37;;;2.20;;
53389;SDS011;39288;42.970;1.524;2023-07-31T05:26:34;5.07;;;2.27;;
53389;SDS011;39288;42.970;1.524;2023-07-31T05:27:35;2.80;;;2.10;;
53389;SDS011;39288;42.970;1.524;2023-07-31T05:28:35;3.47;;;2.23;;
53389;SDS011;39288;42.970;1.524;2023-07-31T05:29:36;8.67;;;2.10;;
53389;SDS011;39288;42.970;1.524;2023-07-31T05:30:36;6.83;;;2.50;;
53389;SDS011;39288;42.970;1.524;2023-07-31T05:31:37;3.50;;;2.00;;
53389;SDS011;39288;42.970;1.524;2023-07-31T05:32:38;5.55;;;2.13;;
53389;SDS011;39288;42.970;1.524;2023-07-31T05:33:39;4.93;;;2.10;;
53389;SDS011;39288;42.970;1.524;2023-07-31T05:34:39;4.57;;;2.37;;
53389;SDS011;39288;42.970;1.524;2023-07-31T05:35:40;4.47;;;1.93;;
53389;SDS011;39288;42.970;1.524;2023-07-31T05:36:40;5.60;;;2.13;;
53389;SDS011;39288;42.970;1.524;2023-07-31T05:37:41;4.20;;;1.83;;
53389;SDS011;39288;42.970;1.524;2023-07-31T05:38:41;4.80;;;1.77;;
53389;SDS011;39288;42.970;1.524;2023-07-31T05:39:44;7.13;;;2.38;;
53389;SDS011;39288;42.970;1.524;2023-07-31T05:40:44;5.67;;;2.80;;
53389;SDS011;39288;42.970;1.524;2023-07-31T05:41:45;6.60;;;2.00;;
53389;SDS011;39288;42.970;1.524;2023-07-31T05:42:45;3.73;;;1.50;;
53389;SDS011;39288;42.970;1.524;2023-07-31T05:43:46;4.73;;;1.77;;
53389;SDS011;39288;42.970;1.524;2023-07-31T05:44:47;4.73;;;2.00;;
53389;SDS011;39288;42.970;1.524;2023-07-31T05:45:47;2.97;;;1.60;;
53389;SDS011;39288;42.970;1.524;2023-07-31T05:46:48;4.50;;;1.83;;
53389;SDS011;39288;42.970;1.524;2023-07-31T05:47:48;3.80;;;1.87;;
53389;SDS011;39288;42.970;1.524;2023-07-31T05:48:49;3.10;;;2.03;;
53389;SDS011;39288;42.970;1.524;2023-07-31T05:49:49;3.37;;;2.03;;
53389;SDS011;39288;42.970;1.524;2023-07-31T05:50:52;4.38;;;1.80;;
53389;SDS011;39288;42.970;1.524;2023-07-31T05:51:53;3.53;;;2.20;;
53389;SDS011;39288;42.970;1.524;2023-07-31T05:52:53;3.90;;;1.70;;
53389;SDS011;39288;42.970;1.524;2023-07-31T05:53:54;5.27;;;2.27;;
53389;SDS011;39288;42.970;1.524;2023-07-31T05:54:54;4.27;;;2.00;;
53389;SDS011;39288;42.970;1.524;2023-07-31T05:55:55;3.60;;;1.90;;
53389;SDS011;39288;42.970;1.524;2023-07-31T05:56:55;2.77;;;1.90;;
53389;SDS011;39288;42.970;1.524;2023-07-31T05:57:56;4.80;;;2.10;;
53389;SDS011;39288;42.970;1.524;2023-07-31T05:58:56;4.20;;;2.03;;
53389;SDS011;39288;42.970;1.524;2023-07-31T05:59:57;5.70;;;2.03;;
53389;SDS011;39288;42.970;1.524;2023-07-31T06:00:57;5.87;;;2.30;;
53389;SDS011;39288;42.970;1.524;2023-07-31T06:01:58;10.10;;;2.90;;
53389;SDS011;39288;42.970;1.524;2023-07-31T06:02:59;6.82;;;2.40;;
53389;SDS011;39288;42.970;1.524;2023-07-31T06:04:00;4.80;;;2.13;;
53389;SDS011;39288;42.970;1.524;2023-07-31T06:05:02;7.18;;;2.60;;
53389;SDS011;39288;42.970;1.524;2023-07-31T06:06:04;6.38;;;2.50;;
53389;SDS011;39288;42.970;1.524;2023-07-31T06:07:05;6.28;;;2.60;;
53389;SDS011;39288;42.970;1.524;2023-07-31T06:08:06;5.70;;;2.27;;
53389;SDS011;39288;42.970;1.524;2023-07-31T06:09:06;11.20;;;2.87;;
53389;SDS011;39288;42.970;1.524;2023-07-31T06:10:07;4.53;;;2.50;;
53389;SDS011;39288;42.970;1.524;2023-07-31T06:11:08;4.53;;;2.55;;
53389;SDS011;39288;42.970;1.524;2023-07-31T06:12:09;5.50;;;2.58;;
53389;SDS011;39288;42.970;1.524;2023-07-31T06:13:09;13.23;;;2.73;;
53389;SDS011;39288;42.970;1.524;2023-07-31T06:14:10;7.50;;;2.70;;
53389;SDS011;39288;42.970;1.524;2023-07-31T06:15:10;3.43;;;2.37;;